Flight Track Log - Related Links

Times and Time Zones

All times are in EDT time to prevent confusion due to time zone crossing. See the SWA3247 flight status page for this flight to view local times or setup timezone preferences in your user account.

Time Position Orientation Groundspeed Altitude Reporting Facility
EDT Latitude Longitude Course Direction KTS MPH feet Rate Location/Type
Mon 09:00:02 PM 36.0767 -115.1706 270° West 160 184 3,500  Level Los Angeles Center
Mon 09:00:56 PM 36.0764 -115.2292 270° West 198 228 5,000 2,262 Climbing Los Angeles Center
Mon 09:02:04 PM 36.1156 -115.2908 308° West 254 292 8,100 2,906 Climbing Los Angeles Center
Mon 09:03:04 PM 36.1733 -115.2481 31° Northeast 274 315 11,200 2,029 Climbing Los Angeles Center
Mon 09:04:20 PM 36.1961 -115.1039 79° East 346 398 12,700 1,783 Climbing Los Angeles Center
Mon 09:05:22 PM 36.1975 -114.9731 89° East 377 434 15,300 2,390 Climbing Los Angeles Center
Mon 09:06:23 PM 36.1986 -114.8331 89° East 403 464 17,600 2,244 Climbing Los Angeles Center
Mon 09:07:25 PM 36.1989 -114.6883 90° East 417 480 19,900 2,081 Climbing Los Angeles Center
Mon 09:08:27 PM 36.1961 -114.5361 91° East 439 505 21,900 1,839 Climbing Los Angeles Center
Mon 09:09:29 PM 36.1936 -114.3786 91° East 454 522 23,700 1,902 Climbing Los Angeles Center
Mon 09:10:30 PM 36.1978 -114.1831 88° East 472 543 25,800 1,854 Climbing Los Angeles Center
Mon 09:11:32 PM 36.2206 -114.0181 80° East 484 557 27,500 1,548 Climbing Los Angeles Center
Mon 09:12:34 PM 36.2397 -113.8519 82° East 487 560 29,000 1,355 Climbing Los Angeles Center
Mon 09:13:36 PM 36.2589 -113.6803 82° East 500 575 30,300 1,366 Climbing Los Angeles Center
Mon 09:14:37 PM 36.2792 -113.5061 82° East 510 587 31,800 1,512 Climbing Los Angeles Center
Mon 09:15:39 PM 36.2997 -113.3325 82° East 510 587 33,400 1,548 Climbing Los Angeles Center
Mon 09:16:41 PM 36.3358 -113.1536 76° East 504 580 35,000 1,403 Climbing Los Angeles Center
Mon 09:17:43 PM 36.3958 -112.9989 64° Northeast 499 574 36,300 976 Climbing Los Angeles Center
Mon 09:18:44 PM 36.4536 -112.8425 65° Northeast 500 575 37,000 341 Climbing Los Angeles Center
Mon 09:19:46 PM 36.5239 -112.6519 65° Northeast 507 583 37,000  Level Los Angeles Center
Mon 09:20:48 PM 36.5819 -112.4928 66° East 507 583 37,000  Level Los Angeles Center
Mon 09:21:49 PM 36.6400 -112.3344 65° Northeast 507 583 37,000  Level Los Angeles Center
Mon 09:22:51 PM 36.6972 -112.1764 66° East 504 580 37,000  Level Los Angeles Center
Mon 09:23:53 PM 36.7553 -112.0183 65° Northeast 503 579 37,000  Level Los Angeles Center
Mon 09:24:54 PM 36.8117 -111.8594 66° East 503 579 37,000  Level Los Angeles Center
Mon 09:25:56 PM 36.8686 -111.7003 66° East 505 581 37,000  Level Los Angeles Center
Mon 09:27:59 PM 36.9939 -111.3500 65° Northeast 505 581 37,000  Level Los Angeles Center
Mon 09:28:00 PM 36.9398 -111.4514 65° Northeast  Level FlightAware Approximate
Mon 09:29:24 PM 37.0708 -111.1269 67° East 504 580 37,000  Level Denver Center
Mon 09:31:27 PM 37.1817 -110.8042 67° East 507 583 37,000  Level Denver Center
Mon 09:32:29 PM 37.2389 -110.6419 66° East 510 587 37,000  Level Denver Center
Mon 09:33:30 PM 37.2936 -110.4803 67° East 507 583 37,000  Level Denver Center
Mon 09:34:32 PM 37.3589 -110.2875 67° East 503 579 37,000  Level Denver Center
Mon 09:35:33 PM 37.4139 -110.1247 67° East 504 580 37,000  Level Denver Center
Mon 09:36:35 PM 37.4644 -109.9711 67° East 500 575 37,000  Level Denver Center
Mon 09:37:37 PM 37.5169 -109.8186 66° East 497 572 37,000  Level Denver Center
Mon 09:38:38 PM 37.5769 -109.6386 67° East 499 574 37,000  Level Denver Center
Mon 09:39:40 PM 37.6272 -109.4850 68° East 496 571 37,000  Level Denver Center
Mon 09:40:42 PM 37.6869 -109.3044 67° East 499 574 37,000  Level Denver Center
Mon 09:41:43 PM 37.7381 -109.1492 67° East 498 573 37,000  Level Denver Center
Mon 09:42:45 PM 37.7967 -108.9675 68° East 500 575 37,000 387 Level Denver Center
Mon 09:43:47 PM 37.8489 -108.8147 67° East 495 570 37,800 780 Climbing Denver Center
Mon 09:44:48 PM 37.9017 -108.6650 66° East 489 563 38,600 585 Climbing Denver Center
Mon 09:45:50 PM 37.9639 -108.4872 66° East 491 565 39,000 194 Climbing Denver Center
Mon 09:46:52 PM 38.0172 -108.3328 66° East 496 571 39,000  Level Denver Center
Mon 09:47:53 PM 38.0786 -108.1514 67° East 499 574 39,000  Level Denver Center
Mon 09:48:55 PM 38.1258 -107.9897 70° East 506 582 39,000  Level Denver Center
Mon 09:49:57 PM 38.1819 -107.8056 69° East 504 580 39,000  Level Denver Center
Mon 09:50:58 PM 38.2306 -107.6472 69° East 503 579 39,000  Level Denver Center
Mon 09:52:00 PM 38.2800 -107.4889 68° East 504 580 39,000  Level Denver Center
Mon 09:53:02 PM 38.3353 -107.3033 69° East 505 581 39,000  Level Denver Center
Mon 09:54:03 PM 38.3883 -107.1294 69° East 506 582 39,000  Level Denver Center
Mon 09:55:05 PM 38.4372 -106.9633 69° East 502 578 39,000  Level Denver Center
Mon 09:56:07 PM 38.4864 -106.7972 69° East 503 579 39,000  Level Denver Center
Mon 09:57:08 PM 38.5350 -106.6308 69° East 502 578 39,000  Level Denver Center
Mon 09:58:10 PM 38.5836 -106.4644 69° East 501 577 39,000  Level Denver Center
Mon 09:59:12 PM 38.6303 -106.3000 70° East 496 571 39,000  Level Denver Center
Mon 10:00:15 PM 38.6836 -106.1206 69° East 497 572 39,000  Level Denver Center
Mon 10:01:16 PM 38.7308 -105.9547 70° East 497 572 39,000  Level Denver Center
Mon 10:02:18 PM 38.7881 -105.7558 70° East 498 573 39,000  Level Denver Center
Mon 10:03:19 PM 38.8256 -105.6217 70° East 500 575 39,000  Level Denver Center
Mon 10:04:21 PM 38.8817 -105.4208 70° East 501 577 39,000  Level Denver Center
Mon 10:05:23 PM 38.9275 -105.2533 71° East 501 577 39,000  Level Denver Center
Mon 10:06:24 PM 38.9747 -105.0872 70° East 499 574 39,000  Level Denver Center
Mon 10:07:26 PM 39.0203 -104.9231 70° East 495 570 39,000  Level Denver Center
Mon 10:08:28 PM 39.0656 -104.7564 71° East 496 571 39,000  Level Denver Center
Mon 10:09:30 PM 39.1203 -104.5589 70° East 493 567 39,000  Level Denver Center
Mon 10:10:32 PM 39.1642 -104.3950 71° East 491 565 39,000  Level Denver Center
Mon 10:11:34 PM 39.2078 -104.2311 71° East 489 563 39,000  Level Denver Center
Mon 10:12:36 PM 39.2511 -104.0686 71° East 483 556 39,000  Level Denver Center
Mon 10:13:38 PM 39.2933 -103.9081 71° East 477 549 39,000  Level Denver Center
Mon 10:14:40 PM 39.3453 -103.7119 71° East 483 556 39,000  Level Denver Center
Mon 10:15:42 PM 39.3903 -103.5453 71° East 492 566 39,000  Level Denver Center
Mon 10:16:43 PM 39.4331 -103.3783 72° East 492 566 39,000  Level Denver Center
Mon 10:17:45 PM 39.4747 -103.2100 72° East 493 567 39,000  Level Denver Center
Mon 10:18:47 PM 39.5189 -103.0422 71° East 494 568 39,000  Level Denver Center
Mon 10:19:49 PM 39.5700 -102.8431 72° East 488 562 39,000  Level Denver Center
Mon 10:20:51 PM 39.6111 -102.6764 72° East 488 562 39,000  Level Denver Center
Mon 10:21:53 PM 39.6525 -102.5119 72° East 483 556 39,000  Level Denver Center
Mon 10:22:55 PM 39.6922 -102.3547 72° East 481 554 39,000  Level Denver Center
Mon 10:23:57 PM 39.7375 -102.1711 72° East 478 550 39,000  Level Denver Center
Mon 10:24:59 PM 39.7756 -102.0150 72° East 473 544 39,000  Level Denver Center
Mon 10:26:01 PM 39.8197 -101.8319 73° East 476 548 39,000  Level Denver Center
Mon 10:27:03 PM 39.8575 -101.6767 72° East 473 544 39,000  Level Denver Center
Mon 10:28:05 PM 39.9003 -101.4953 73° East 472 543 39,000  Level Denver Center
Mon 10:29:06 PM 39.9386 -101.3403 72° East 471 542 39,000  Level Denver Center
Mon 10:30:08 PM 39.9817 -101.1564 73° East 475 547 39,000  Level Denver Center
Mon 10:31:10 PM 40.0186 -100.9983 73° East 478 550 39,000  Level Denver Center
Mon 10:32:12 PM 40.0617 -100.8117 73° East 484 557 39,000  Level Denver Center
Mon 10:33:14 PM 40.0994 -100.6506 73° East 487 560 39,000  Level Denver Center
Mon 10:34:16 PM 40.1422 -100.4614 73° East 488 562 39,000  Level Denver Center
Mon 10:35:18 PM 40.1794 -100.3000 73° East 487 560 39,000  Level Denver Center
Mon 10:36:20 PM 40.2219 -100.1108 74° East 487 560 39,000  Level Denver Center
Mon 10:37:22 PM 40.2578 -99.9522 73° East 479 551 39,000  Level Denver Center
Mon 10:38:24 PM 40.2989 -99.7683 74° East 477 549 39,000  Level Denver Center
Mon 10:39:26 PM 40.3353 -99.6008 74° East 478 550 39,000  Level Denver Center
Mon 10:40:28 PM 40.3731 -99.4328 74° East 481 554 39,000  Level Denver Center
Mon 10:41:17 PM 40.4028 -99.2967 74° East 485 558 39,000  Level Minneapolis Center
Mon 10:42:19 PM 40.4394 -99.1258 74° East 488 562 39,000  Level Minneapolis Center
Mon 10:43:20 PM 40.4747 -98.9569 75° East 485 558 39,000  Level Minneapolis Center
Mon 10:44:22 PM 40.5189 -98.7508 74° East 490 564 39,000  Level Minneapolis Center
Mon 10:45:23 PM 40.5556 -98.5767 74° East 496 571 39,000  Level Minneapolis Center
Mon 10:46:37 PM 40.5914 -98.4006 75° East 501 577 39,000  Level Minneapolis Center
Mon 10:47:39 PM 40.6353 -98.1894 75° East 502 578 39,000  Level Minneapolis Center
Mon 10:48:40 PM 40.6719 -98.0139 75° East 501 577 39,000  Level Minneapolis Center
Mon 10:49:41 PM 40.7069 -97.8353 75° East 504 580 39,000  Level Minneapolis Center
Mon 10:50:43 PM 40.7428 -97.6569 75° East 506 582 39,000  Level Minneapolis Center
Mon 10:51:44 PM 40.7856 -97.4414 75° East 508 585 39,000  Level Minneapolis Center
Mon 10:52:46 PM 40.8200 -97.2703 75° East 511 588 39,000  Level Minneapolis Center
Mon 10:53:47 PM 40.8556 -97.0897 75° East 510 587 39,000  Level Minneapolis Center
Mon 10:54:48 PM 40.8825 -96.9489 76° East 503 579 39,000  Level Minneapolis Center
Mon 10:55:50 PM 40.9231 -96.7403 76° East 492 566 39,000  Level Minneapolis Center
Mon 10:56:51 PM 40.9431 -96.6017 79° East 486 559 39,000  Level Minneapolis Center
Mon 10:57:53 PM 40.9750 -96.3600 80° East 480 552 39,000  Level Minneapolis Center
Mon 10:58:55 PM 40.9994 -96.1886 79° East 478 550 39,000  Level Minneapolis Center
Mon 10:59:57 PM 41.0244 -96.0183 79° East 478 550 39,000  Level Minneapolis Center
Mon 11:00:58 PM 41.0494 -95.8456 79° East 482 555 39,000  Level Minneapolis Center
Mon 11:02:00 PM 41.0733 -95.6711 80° East 485 558 39,000  Level Minneapolis Center
Mon 11:03:02 PM 41.0986 -95.4958 79° East 489 563 39,000  Level Minneapolis Center
Mon 11:04:03 PM 41.1281 -95.2850 79° East 488 562 39,000  Level Minneapolis Center
Mon 11:05:04 PM 41.1528 -95.1092 79° East 487 560 39,000  Level Minneapolis Center
Mon 11:06:06 PM 41.1761 -94.9356 80° East 483 556 39,000  Level Minneapolis Center
Mon 11:07:07 PM 41.1994 -94.7650 80° East 475 547 39,000  Level Minneapolis Center
Mon 11:08:09 PM 41.2214 -94.5953 80° East 470 541 39,000  Level Minneapolis Center
Mon 11:09:10 PM 41.2433 -94.4261 80° East 467 537 39,000  Level Minneapolis Center
Mon 11:10:11 PM 41.2653 -94.2564 80° East 467 537 39,000  Level Minneapolis Center
Mon 11:11:13 PM 41.2878 -94.0775 80° East 460 529 39,000  Level Minneapolis Center
Mon 11:12:14 PM 41.3081 -93.9111 81° East 459 528 39,000  Level Minneapolis Center
Mon 11:13:16 PM 41.3294 -93.7450 80° East 459 528 39,000  Level Minneapolis Center
Mon 11:14:17 PM 41.3508 -93.5789 80° East 458 527 39,000  Level Minneapolis Center
Mon 11:15:19 PM 41.3717 -93.4119 81° East 459 528 39,000  Level Minneapolis Center
Mon 11:16:20 PM 41.3953 -93.2131 81° East 458 527 39,000  Level Minneapolis Center
Mon 11:17:21 PM 41.4147 -93.0461 81° East 458 527 39,000  Level Minneapolis Center
Mon 11:18:23 PM 41.4347 -92.8803 81° East 456 525 39,000  Level Minneapolis Center
Mon 11:19:24 PM 41.4536 -92.7125 81° East 459 528 39,000  Level Minneapolis Center
Mon 11:20:20 PM 41.4719 -92.5450 82° East 457 526 39,000  Level Chicago Center
Mon 11:21:21 PM 41.4906 -92.3819 81° East 451 519 39,000  Level Chicago Center
Mon 11:22:23 PM 41.5075 -92.2303 81° East 453 521 39,000  Level Chicago Center
Mon 11:23:24 PM 41.5253 -92.0664 82° East 452 520 39,000  Level Chicago Center
Mon 11:24:25 PM 41.5475 -91.8708 81° East 450 518 39,000  Level Chicago Center
Mon 11:25:26 PM 41.5644 -91.7081 82° East 449 517 39,000  Level Chicago Center
Mon 11:26:28 PM 41.5808 -91.5436 82° East 451 519 39,000  Level Chicago Center
Mon 11:27:29 PM 41.5992 -91.3783 82° East 455 524 39,000  Level Chicago Center
Mon 11:28:30 PM 41.6158 -91.2106 82° East 459 528 39,000  Level Chicago Center
Mon 11:29:32 PM 41.6314 -91.0447 83° East 458 527 39,000  Level Chicago Center
Mon 11:30:33 PM 41.6519 -90.8439 82° East 459 528 39,000  Level Chicago Center
Mon 11:31:34 PM 41.6683 -90.6756 83° East 461 531 39,000  Level Chicago Center
Mon 11:32:36 PM 41.6850 -90.5000 83° East 454 522 39,000  Level Chicago Center
Mon 11:33:37 PM 41.7003 -90.3314 83° East 455 524 39,000  Level Chicago Center
Mon 11:34:38 PM 41.7156 -90.1656 83° East 448 516 39,000  Level Chicago Center
Mon 11:35:40 PM 41.7311 -89.9972 83° East 453 521 39,000  Level Chicago Center
Mon 11:36:41 PM 41.7461 -89.8314 83° East 450 518 39,000  Level Chicago Center
Mon 11:37:42 PM 41.7619 -89.6658 83° East 449 517 39,000  Level Chicago Center
Mon 11:38:44 PM 41.7756 -89.5025 84° East 446 513 39,000  Level Chicago Center
Mon 11:39:45 PM 41.7900 -89.3361 83° East 450 518 39,000  Level Chicago Center
Mon 11:40:46 PM 41.8028 -89.1711 84° East 448 516 39,000  Level Chicago Center
Mon 11:41:48 PM 41.8178 -88.9714 84° East 450 518 39,000  Level Chicago Center
Mon 11:42:49 PM 41.8314 -88.8047 84° East 451 519 39,000  Level Chicago Center
Mon 11:43:50 PM 41.8450 -88.6356 84° East 455 524 39,000  Level Chicago Center
Mon 11:44:52 PM 41.8581 -88.4678 84° East 453 521 39,000  Level Chicago Center
Mon 11:45:53 PM 41.8717 -88.2953 84° East 461 531 39,000  Level Chicago Center
Mon 11:46:54 PM 41.8847 -88.1250 84° East 459 528 39,000  Level Chicago Center
Mon 11:47:56 PM 41.8958 -87.9531 85° East 461 531 39,000  Level Chicago Center
Mon 11:48:57 PM 41.9086 -87.7794 84° East 466 536 39,000  Level Chicago Center
Mon 11:49:58 PM 41.9200 -87.6067 85° East 466 536 39,000  Level Chicago Center
Mon 11:51:00 PM 41.9336 -87.3992 85° East 466 536 39,000  Level Chicago Center
Mon 11:52:01 PM 41.9467 -87.2278 84° East 464 534 39,000  Level Chicago Center
Mon 11:53:02 PM 41.9567 -87.0544 86° East 466 536 39,000  Level Chicago Center
Mon 11:54:03 PM 41.9675 -86.8819 85° East 466 536 39,000  Level Chicago Center
Mon 11:55:05 PM 41.9778 -86.7092 85° East 467 537 39,000  Level Chicago Center
Mon 11:56:06 PM 41.9881 -86.5517 85° East 463 533 39,000  Level Chicago Center
Mon 11:57:07 PM 41.9969 -86.3808 86° East 458 527 39,000  Level Chicago Center
Mon 11:58:08 PM 42.0092 -86.1794 85° East 452 520 39,000  Level Chicago Center
Mon 11:59:09 PM 42.0183 -86.0131 86° East 448 516 39,000  Level Chicago Center
Tue 12:00:10 AM 42.0272 -85.8600 85° East 445 512 39,000  Level Chicago Center
Tue 12:01:11 AM 42.0356 -85.6942 86° East 447 514 39,000  Level Chicago Center
Tue 12:02:13 AM 42.0442 -85.5286 86° East 448 516 39,000  Level Chicago Center
Tue 12:03:14 AM 42.0497 -85.3631 87° East 446 513 39,000  Level Chicago Center
Tue 12:04:15 AM 42.0636 -85.1586 85° East 462 532 39,000  Level Chicago Center
Tue 12:05:16 AM 42.0711 -84.9919 86° East 453 521 39,000  Level Chicago Center
Tue 12:06:17 AM 42.0781 -84.8233 87° East 453 521 39,000  Level Chicago Center
Tue 12:07:18 AM 42.0942 -84.6553 83° East 456 525 39,000  Level Chicago Center
Tue 12:08:19 AM 42.1122 -84.4872 82° East 457 526 39,000  Level Chicago Center
Tue 12:09:20 AM 42.1311 -84.3197 81° East 456 525 39,000  Level Chicago Center
Tue 12:09:59 AM 42.1428 -84.1986 83° East 447 514 39,000  Level Cleveland Center
Tue 12:10:59 AM 42.1583 -84.0286 83° East 447 514 39,000  Level Cleveland Center
Tue 12:11:59 AM 42.1758 -83.8614 82° East 447 514 39,000  Level Cleveland Center
Tue 12:12:59 AM 42.1908 -83.6914 83° East 447 514 39,000  Level Cleveland Center
Tue 12:13:59 AM 42.2078 -83.5294 82° East 472 543 39,000  Level Cleveland Center
Tue 12:14:59 AM 42.2272 -83.3369 82° East 472 543 39,000  Level Cleveland Center
Tue 12:15:59 AM 42.2411 -83.1775 83° East 472 543 39,000  Level Cleveland Center
Tue 12:16:59 AM 42.2575 -83.0069 83° East 472 543 39,000  Level Cleveland Center
Tue 12:17:59 AM 42.2756 -82.8394 82° East 460 529 39,000  Level Cleveland Center
Tue 12:18:59 AM 42.2911 -82.6686 83° East 460 529 39,000  Level Cleveland Center
Tue 12:19:59 AM 42.3067 -82.4950 83° East 460 529 39,000  Level Cleveland Center
Tue 12:20:59 AM 42.3200 -82.3242 84° East 460 529 39,000  Level Cleveland Center
Tue 12:21:59 AM 42.3372 -82.1364 83° East 460 529 39,000  Level Cleveland Center
Tue 12:22:59 AM 42.3517 -81.9822 83° East 460 529 39,000  Level Cleveland Center
Tue 12:23:59 AM 42.3661 -81.8083 84° East 466 536 39,000  Level Cleveland Center
Tue 12:24:59 AM 42.3803 -81.6372 84° East 458 527 39,000  Level Cleveland Center
Tue 12:25:59 AM 42.3964 -81.4631 83° East 463 533 39,000  Level Cleveland Center
Tue 12:26:59 AM 42.4081 -81.2919 85° East 463 533 39,000  Level Cleveland Center
Tue 12:27:59 AM 42.4236 -81.1064 83° East 458 527 39,000  Level Cleveland Center
Tue 12:28:59 AM 42.4367 -80.9319 84° East 463 533 39,000  Level Cleveland Center
Tue 12:29:59 AM 42.4497 -80.7606 84° East 463 533 39,000  Level Cleveland Center
Tue 12:30:59 AM 42.4603 -80.5861 85° East 463 533 39,000  Level Cleveland Center
Tue 12:31:59 AM 42.4725 -80.4142 84° East 463 533 39,000  Level Cleveland Center
Tue 12:32:59 AM 42.4828 -80.2425 85° East 463 533 39,000  Level Cleveland Center
Tue 12:33:59 AM 42.4986 -80.0678 83° East 463 533 39,000  Level Cleveland Center
Tue 12:34:59 AM 42.5125 -79.9017 83° East 450 518 39,000  Level Cleveland Center
Tue 12:35:59 AM 42.5217 -79.7297 86° East 450 518 39,000  Level Cleveland Center
Tue 12:36:59 AM 42.5308 -79.5575 86° East 455 524 39,000  Level Cleveland Center
Tue 12:37:59 AM 42.5436 -79.3856 84° East 455 524 39,000  Level Cleveland Center
Tue 12:38:59 AM 42.5542 -79.2078 85° East 461 531 39,000  Level Cleveland Center
Tue 12:39:59 AM 42.5644 -79.0356 85° East 461 531 39,000  Level Cleveland Center
Tue 12:40:59 AM 42.5747 -78.8661 85° East 461 531 39,000  Level Cleveland Center
Tue 12:41:59 AM 42.5822 -78.6911 87° East 461 531 39,000  Level Cleveland Center
Tue 12:42:59 AM 42.5919 -78.5217 85° East 461 531 39,000  Level Cleveland Center
Tue 12:43:59 AM 42.6011 -78.3406 86° East 461 531 39,000  Level Cleveland Center
Tue 12:44:59 AM 42.6100 -78.1683 86° East 461 531 39,000  Level Cleveland Center
Tue 12:45:59 AM 42.6189 -77.9986 86° East 461 531 39,000  Level Cleveland Center
Tue 12:46:59 AM 42.6275 -77.8347 86° East 455 524 39,000  Level Cleveland Center
Tue 12:47:59 AM 42.6361 -77.6761 86° East 455 524 39,000 -511 Level Cleveland Center
Tue 12:49:55 AM 42.6478 -77.3725 87° East 485 558 37,500 -920 Descending Boston Center
Tue 12:50:55 AM 42.6561 -77.1725 87° East 457 526 36,300 -1,050 Descending Boston Center
Tue 12:51:55 AM 42.6633 -77.0008 87° East 452 520 35,400 -950 Descending Boston Center
Tue 12:52:55 AM 42.6700 -76.8261 87° East 457 526 34,400 -950 Descending Boston Center
Tue 12:53:55 AM 42.6769 -76.6458 87° East 465 535 33,500 -950 Descending Boston Center
Tue 12:54:55 AM 42.6833 -76.4683 87° East 470 541 32,500 -950 Descending Boston Center
Tue 12:55:55 AM 42.6894 -76.2906 87° East 470 541 31,600 -950 Descending Boston Center
Tue 12:56:55 AM 42.6953 -76.1128 87° East 470 541 30,600 -1,050 Descending Boston Center
Tue 12:57:55 AM 42.6842 -75.9369 95° East 475 547 29,500 -1,050 Descending Boston Center
Tue 12:58:55 AM 42.6750 -75.7614 94° East 468 539 28,500 -1,000 Descending Boston Center
Tue 12:59:55 AM 42.6672 -75.5944 94° East 457 526 27,500 -1,700 Descending Boston Center
Tue 01:00:55 AM 42.6572 -75.4244 95° East 457 526 25,100 -2,400 Descending Boston Center
Tue 01:01:55 AM 42.6489 -75.2603 94° East 444 511 22,700 -2,300 Descending Boston Center
Tue 01:02:55 AM 42.6381 -75.1044 95° East 434 499 20,500 -2,200 Descending Boston Center
Tue 01:03:55 AM 42.6311 -74.9547 94° East 414 476 18,300 -2,200 Descending Boston Center
Tue 01:04:55 AM 42.6194 -74.8103 96° East 398 458 16,100 -2,257 Descending Boston Center
Tue 01:05:36 AM 42.6156 -74.7028 93° East 372 428 14,500 -2,100 Descending Boston Center
Tue 01:06:55 AM 42.6042 -74.5331 95° East 370 426 11,900 -1,734 Descending Boston Center
Tue 01:07:44 AM 42.5978 -74.4172 94° East 341 392 10,800 -1,596 Descending Boston Center
Tue 01:08:44 AM 42.5872 -74.3014 97° East 309 356 9,000 -1,924 Descending Boston Center
Tue 01:09:55 AM 42.5792 -74.1600 94° East 314 361 6,600 -1,884 Descending Boston Center
Tue 01:10:45 AM 42.5742 -74.0725 94° East 304 350 5,200 -1,405 Descending Boston Center
Tue 01:11:46 AM 42.5656 -73.9511 95° East 289 333 4,000 -836 Descending Boston Center
Tue 01:12:47 AM 42.5667 -73.8608 89° East 234 269 3,500 -744 Descending Boston Center
Tue 01:13:47 AM 42.5944 -73.7967 60° Northeast 207 238 2,500 -793 Descending Boston Center
Tue 01:14:48 AM 42.6464 -73.8006 357° North 180 207 1,900 -639 Descending Boston Center
Tue 01:15:49 AM 42.6922 -73.8072 354° North 162 186 1,200 -744 Descending Boston Center
Tue 01:16:49 AM 42.7361 -73.8083 359° North 143 165 400 -800 Descending Boston Center
Tue 01:21:00 AM 42.7491 -73.8020 223° Southwest  Level Estimated

Login

Don't have an account? Register now (free) for customized features, flight alerts, and more!